sensor_id;sensor_type;location;lat;lon;timestamp;pressure;altitude;pressure_sealevel;temperature;humidity
68508;BME280;55510;49.560;19.090;2023-04-06T00:00:50;96722.22;;;-5.47;86.80
68508;BME280;55510;49.560;19.090;2023-04-06T00:03:52;96727.97;;;-5.44;86.48
68508;BME280;55510;49.560;19.090;2023-04-06T00:06:53;96723.44;;;-5.42;86.87
68508;BME280;55510;49.560;19.090;2023-04-06T00:09:53;96719.88;;;-5.60;86.69
68508;BME280;55510;49.560;19.090;2023-04-06T00:12:54;96721.66;;;-5.61;86.94
68508;BME280;55510;49.560;19.090;2023-04-06T00:15:57;96722.41;;;-5.80;87.29
68508;BME280;55510;49.560;19.090;2023-04-06T00:18:57;96721.19;;;-5.76;87.54
68508;BME280;55510;49.560;19.090;2023-04-06T00:21:58;96711.25;;;-5.80;87.07
68508;BME280;55510;49.560;19.090;2023-04-06T00:24:59;96714.56;;;-6.09;86.83
68508;BME280;55510;49.560;19.090;2023-04-06T00:27:59;96718.81;;;-6.39;88.74
68508;BME280;55510;49.560;19.090;2023-04-06T00:31:00;96710.47;;;-6.43;89.90
68508;BME280;55510;49.560;19.090;2023-04-06T00:34:01;96703.19;;;-6.28;90.27
68508;BME280;55510;49.560;19.090;2023-04-06T00:37:01;96709.13;;;-6.16;90.03
68508;BME280;55510;49.560;19.090;2023-04-06T00:40:03;96709.69;;;-6.03;89.95
68508;BME280;55510;49.560;19.090;2023-04-06T00:43:03;96709.13;;;-6.06;89.45
68508;BME280;55510;49.560;19.090;2023-04-06T00:46:04;96705.03;;;-6.09;89.87
68508;BME280;55510;49.560;19.090;2023-04-06T00:49:05;96711.25;;;-6.21;88.74
68508;BME280;55510;49.560;19.090;2023-04-06T00:52:06;96709.13;;;-6.16;89.44
68508;BME280;55510;49.560;19.090;2023-04-06T00:55:07;96705.03;;;-6.09;89.71
68508;BME280;55510;49.560;19.090;2023-04-06T00:58:08;96708.31;;;-6.07;89.34
68508;BME280;55510;49.560;19.090;2023-04-06T01:01:09;96709.28;;;-6.08;89.07
68508;BME280;55510;49.560;19.090;2023-04-06T01:04:10;96703.53;;;-6.12;89.04
68508;BME280;55510;49.560;19.090;2023-04-06T01:07:10;96704.63;;;-6.14;88.93
68508;BME280;55510;49.560;19.090;2023-04-06T01:10:25;96713.09;;;-6.12;88.71
68508;BME280;55510;49.560;19.090;2023-04-06T01:13:26;96712.41;;;-6.14;88.45
68508;BME280;55510;49.560;19.090;2023-04-06T01:16:27;96706.38;;;-6.15;88.67
68508;BME280;55510;49.560;19.090;2023-04-06T01:19:28;96702.84;;;-6.14;88.67
68508;BME280;55510;49.560;19.090;2023-04-06T01:22:29;96703.66;;;-6.13;88.81
68508;BME280;55510;49.560;19.090;2023-04-06T01:25:29;96699.28;;;-6.13;88.61
68508;BME280;55510;49.560;19.090;2023-04-06T01:28:30;96701.34;;;-6.16;88.29
68508;BME280;55510;49.560;19.090;2023-04-06T01:31:31;96701.56;;;-6.19;88.57
68508;BME280;55510;49.560;19.090;2023-04-06T01:34:32;96694.91;;;-6.22;88.27
68508;BME280;55510;49.560;19.090;2023-04-06T01:37:32;96690.53;;;-6.21;88.38
68508;BME280;55510;49.560;19.090;2023-04-06T01:40:33;96694.06;;;-6.22;88.48
68508;BME280;55510;49.560;19.090;2023-04-06T01:43:34;96694.22;;;-6.24;88.57
68508;BME280;55510;49.560;19.090;2023-04-06T01:46:35;96688.88;;;-6.22;88.83
68508;BME280;55510;49.560;19.090;2023-04-06T01:49:36;96695.03;;;-6.23;89.14
68508;BME280;55510;49.560;19.090;2023-04-06T01:52:37;96690.66;;;-6.23;89.05
68508;BME280;55510;49.560;19.090;2023-04-06T01:55:38;96690.09;;;-6.27;89.30
68508;BME280;55510;49.560;19.090;2023-04-06T01:58:38;96690.09;;;-6.27;89.51
68508;BME280;55510;49.560;19.090;2023-04-06T02:01:39;96687.78;;;-6.30;89.61
68508;BME280;55510;49.560;19.090;2023-04-06T02:04:40;96680.94;;;-6.31;89.83
68508;BME280;55510;49.560;19.090;2023-04-06T02:07:41;96684.50;;;-6.32;90.14
68508;BME280;55510;49.560;19.090;2023-04-06T02:10:42;96682.75;;;-6.31;89.97
68508;BME280;55510;49.560;19.090;2023-04-06T02:13:42;96677.94;;;-6.36;90.33
68508;BME280;55510;49.560;19.090;2023-04-06T02:16:43;96680.53;;;-6.36;90.20
68508;BME280;55510;49.560;19.090;2023-04-06T02:19:44;96682.41;;;-6.38;90.12
68508;BME280;55510;49.560;19.090;2023-04-06T02:22:45;96681.03;;;-6.42;90.43
68508;BME280;55510;49.560;19.090;2023-04-06T02:25:45;96671.06;;;-6.47;90.06
68508;BME280;55510;49.560;19.090;2023-04-06T02:28:46;96673.09;;;-6.50;90.48
68508;BME280;55510;49.560;19.090;2023-04-06T02:31:47;96672.28;;;-6.51;90.77
68508;BME280;55510;49.560;19.090;2023-04-06T02:34:48;96669.13;;;-6.54;90.59
68508;BME280;55510;49.560;19.090;2023-04-06T02:37:48;96677.84;;;-6.56;90.86
68508;BME280;55510;49.560;19.090;2023-04-06T02:40:49;96670.19;;;-6.57;91.10
68508;BME280;55510;49.560;19.090;2023-04-06T02:43:49;96673.63;;;-6.57;90.92
68508;BME280;55510;49.560;19.090;2023-04-06T02:46:50;96669.41;;;-6.58;91.00
68508;BME280;55510;49.560;19.090;2023-04-06T02:49:51;96683.16;;;-6.57;90.97
68508;BME280;55510;49.560;19.090;2023-04-06T02:52:52;96672.94;;;-6.59;90.66
68508;BME280;55510;49.560;19.090;2023-04-06T02:55:53;96677.66;;;-6.64;90.82
68508;BME280;55510;49.560;19.090;2023-04-06T02:58:54;96676.84;;;-6.64;90.94
68508;BME280;55510;49.560;19.090;2023-04-06T03:01:54;96676.00;;;-6.65;90.92
68508;BME280;55510;49.560;19.090;2023-04-06T03:04:55;96677.81;;;-6.65;90.75
68508;BME280;55510;49.560;19.090;2023-04-06T03:07:56;96687.56;;;-6.69;90.81
68508;BME280;55510;49.560;19.090;2023-04-06T03:10:57;96681.97;;;-6.74;90.46
68508;BME280;55510;49.560;19.090;2023-04-06T03:13:57;96681.53;;;-6.79;90.95
68508;BME280;55510;49.560;19.090;2023-04-06T03:16:59;96679.09;;;-6.81;91.11
68508;BME280;55510;49.560;19.090;2023-04-06T03:20:00;96679.56;;;-6.87;91.15
68508;BME280;55510;49.560;19.090;2023-04-06T03:23:01;96685.94;;;-6.91;90.94
68508;BME280;55510;49.560;19.090;2023-04-06T03:26:02;96680.22;;;-6.95;91.10
68508;BME280;55510;49.560;19.090;2023-04-06T03:29:04;96681.41;;;-6.99;91.12
68508;BME280;55510;49.560;19.090;2023-04-06T03:32:04;96689.44;;;-7.02;91.22
68508;BME280;55510;49.560;19.090;2023-04-06T03:35:05;96688.03;;;-7.06;91.31
68508;BME280;55510;49.560;19.090;2023-04-06T03:38:06;96683.78;;;-7.07;91.20
68508;BME280;55510;49.560;19.090;2023-04-06T03:41:07;96686.53;;;-7.09;91.30
68508;BME280;55510;49.560;19.090;2023-04-06T03:44:08;96689.91;;;-7.08;91.84
68508;BME280;55510;49.560;19.090;2023-04-06T03:47:08;96697.66;;;-7.08;91.34
68508;BME280;55510;49.560;19.090;2023-04-06T03:50:09;96691.69;;;-7.09;91.45
68508;BME280;55510;49.560;19.090;2023-04-06T03:53:10;96700.41;;;-7.10;91.48
68508;BME280;55510;49.560;19.090;2023-04-06T03:56:11;96702.16;;;-7.10;91.33
68508;BME280;55510;49.560;19.090;2023-04-06T03:59:12;96702.28;;;-7.12;91.45
68508;BME280;55510;49.560;19.090;2023-04-06T04:02:12;96699.00;;;-7.14;91.35
68508;BME280;55510;49.560;19.090;2023-04-06T04:05:13;96693.13;;;-7.16;91.28
68508;BME280;55510;49.560;19.090;2023-04-06T04:08:14;96693.50;;;-7.21;91.49
68508;BME280;55510;49.560;19.090;2023-04-06T04:11:14;96698.69;;;-7.21;91.62
68508;BME280;55510;49.560;19.090;2023-04-06T04:14:16;96694.59;;;-7.23;91.54
68508;BME280;55510;49.560;19.090;2023-04-06T04:17:17;96692.25;;;-7.26;91.75
68508;BME280;55510;49.560;19.090;2023-04-06T04:20:17;96692.34;;;-7.28;91.69
68508;BME280;55510;49.560;19.090;2023-04-06T04:23:18;96693.31;;;-7.29;91.83
68508;BME280;55510;49.560;19.090;2023-04-06T04:26:19;96697.53;;;-7.28;92.21
68508;BME280;55510;49.560;19.090;2023-04-06T04:29:20;96702.59;;;-7.26;92.17
68508;BME280;55510;49.560;19.090;2023-04-06T04:32:22;96698.94;;;-7.24;92.31
68508;BME280;55510;49.560;19.090;2023-04-06T04:35:23;96705.25;;;-7.17;92.10
68508;BME280;55510;49.560;19.090;2023-04-06T04:38:24;96706.38;;;-7.09;92.31
68508;BME280;55510;49.560;19.090;2023-04-06T04:41:25;96707.78;;;-7.05;92.04
68508;BME280;55510;49.560;19.090;2023-04-06T04:44:25;96709.03;;;-7.00;91.77
68508;BME280;55510;49.560;19.090;2023-04-06T04:47:26;96707.28;;;-6.99;91.60
68508;BME280;55510;49.560;19.090;2023-04-06T04:50:27;96711.13;;;-6.93;91.55
68508;BME280;55510;49.560;19.090;2023-04-06T04:53:28;96703.25;;;-6.92;91.10
68508;BME280;55510;49.560;19.090;2023-04-06T04:56:28;96711.72;;;-6.90;90.80
68508;BME280;55510;49.560;19.090;2023-04-06T04:59:30;96710.25;;;-6.82;91.12
68508;BME280;55510;49.560;19.090;2023-04-06T05:02:30;96708.09;;;-6.77;90.96
68508;BME280;55510;49.560;19.090;2023-04-06T05:05:31;96702.31;;;-6.70;90.75
68508;BME280;55510;49.560;19.090;2023-04-06T05:08:33;96708.03;;;-6.66;90.26
68508;BME280;55510;49.560;19.090;2023-04-06T05:11:34;96703.75;;;-6.56;90.66
68508;BME280;55510;49.560;19.090;2023-04-06T05:14:34;96695.91;;;-6.44;90.42
68508;BME280;55510;49.560;19.090;2023-04-06T05:17:35;96693.22;;;-6.33;90.43
68508;BME280;55510;49.560;19.090;2023-04-06T05:20:39;96688.38;;;-6.16;90.46
68508;BME280;55510;49.560;19.090;2023-04-06T05:23:39;96698.22;;;-6.10;89.74
68508;BME280;55510;49.560;19.090;2023-04-06T05:26:40;96696.31;;;-6.08;89.46
68508;BME280;55510;49.560;19.090;2023-04-06T05:29:41;96697.94;;;-5.97;89.24
68508;BME280;55510;49.560;19.090;2023-04-06T05:32:42;96692.44;;;-5.73;89.76
68508;BME280;55510;49.560;19.090;2023-04-06T05:35:44;96692.84;;;-5.58;88.63
68508;BME280;55510;49.560;19.090;2023-04-06T05:38:45;96694.91;;;-5.42;88.47
68508;BME280;55510;49.560;19.090;2023-04-06T05:41:46;96692.91;;;-5.28;88.05
68508;BME280;55510;49.560;19.090;2023-04-06T05:44:46;96693.44;;;-5.15;87.21
68508;BME280;55510;49.560;19.090;2023-04-06T05:47:47;96689.34;;;-5.07;86.31
68508;BME280;55510;49.560;19.090;2023-04-06T05:50:49;96690.25;;;-4.89;86.78
68508;BME280;55510;49.560;19.090;2023-04-06T05:53:53;96687.66;;;-4.69;86.73
68508;BME280;55510;49.560;19.090;2023-04-06T05:56:54;96682.97;;;-4.56;86.04
68508;BME280;55510;49.560;19.090;2023-04-06T05:59:55;96682.25;;;-4.38;85.99
68508;BME280;55510;49.560;19.090;2023-04-06T06:02:55;96673.00;;;-4.23;85.47
68508;BME280;55510;49.560;19.090;2023-04-06T06:06:01;96679.38;;;-4.07;85.80
68508;BME280;55510;49.560;19.090;2023-04-06T06:09:02;96676.00;;;-3.89;85.53
68508;BME280;55510;49.560;19.090;2023-04-06T06:12:04;96670.03;;;-3.72;85.14
68508;BME280;55510;49.560;19.090;2023-04-06T06:15:04;96669.38;;;-3.56;84.16
68508;BME280;55510;49.560;19.090;2023-04-06T06:18:05;96677.13;;;-3.46;82.81
68508;BME280;55510;49.560;19.090;2023-04-06T06:21:06;96677.34;;;-3.39;82.15
68508;BME280;55510;49.560;19.090;2023-04-06T06:24:07;96669.63;;;-3.31;82.43
68508;BME280;55510;49.560;19.090;2023-04-06T06:27:08;96670.50;;;-3.22;81.98
68508;BME280;55510;49.560;19.090;2023-04-06T06:30:09;96672.34;;;-3.14;81.38
68508;BME280;55510;49.560;19.090;2023-04-06T06:33:10;96671.75;;;-3.08;81.09
68508;BME280;55510;49.560;19.090;2023-04-06T06:36:11;96670.41;;;-2.94;81.46
68508;BME280;55510;49.560;19.090;2023-04-06T06:39:12;96676.34;;;-2.84;81.50
68508;BME280;55510;49.560;19.090;2023-04-06T06:42:12;96675.63;;;-2.68;81.36
68508;BME280;55510;49.560;19.090;2023-04-06T06:45:13;96681.22;;;-2.63;80.50
68508;BME280;55510;49.560;19.090;2023-04-06T06:48:14;96676.25;;;-2.48;80.43
68508;BME280;55510;49.560;19.090;2023-04-06T06:51:14;96681.72;;;-2.33;79.94
68508;BME280;55510;49.560;19.090;2023-04-06T06:54:15;96677.63;;;-2.35;78.93
68508;BME280;55510;49.560;19.090;2023-04-06T06:57:16;96674.25;;;-2.27;78.39
68508;BME280;55510;49.560;19.090;2023-04-06T07:00:17;96677.09;;;-2.12;78.80
68508;BME280;55510;49.560;19.090;2023-04-06T07:03:18;96676.84;;;-1.93;78.38
68508;BME280;55510;49.560;19.090;2023-04-06T07:06:19;96679.22;;;-1.65;78.53
68508;BME280;55510;49.560;19.090;2023-04-06T07:09:19;96676.50;;;-1.47;78.28
68508;BME280;55510;49.560;19.090;2023-04-06T07:12:20;96682.59;;;-1.21;77.57
68508;BME280;55510;49.560;19.090;2023-04-06T07:15:21;96685.53;;;-0.91;77.06
68508;BME280;55510;49.560;19.090;2023-04-06T07:18:22;96675.72;;;-0.64;76.92
68508;BME280;55510;49.560;19.090;2023-04-06T07:21:23;96685.31;;;-0.40;74.42
68508;BME280;55510;49.560;19.090;2023-04-06T07:24:24;96683.81;;;-0.26;73.12
68508;BME280;55510;49.560;19.090;2023-04-06T07:27:24;96677.56;;;0.00;72.74
68508;BME280;55510;49.560;19.090;2023-04-06T07:30:25;96676.03;;;0.06;69.31
68508;BME280;55510;49.560;19.090;2023-04-06T07:33:29;96681.41;;;0.12;67.54
68508;BME280;55510;49.560;19.090;2023-04-06T07:36:30;96679.31;;;0.39;66.65
68508;BME280;55510;49.560;19.090;2023-04-06T07:39:31;96675.81;;;0.79;65.86
68508;BME280;55510;49.560;19.090;2023-04-06T07:42:32;96681.81;;;1.11;63.78
68508;BME280;55510;49.560;19.090;2023-04-06T07:45:33;96684.25;;;1.51;63.29
68508;BME280;55510;49.560;19.090;2023-04-06T07:48:34;96673.06;;;1.72;62.09
68508;BME280;55510;49.560;19.090;2023-04-06T07:51:38;96676.59;;;1.94;61.04
68508;BME280;55510;49.560;19.090;2023-04-06T07:54:40;96665.94;;;2.11;59.76
68508;BME280;55510;49.560;19.090;2023-04-06T07:57:41;96666.31;;;2.44;59.25
68508;BME280;55510;49.560;19.090;2023-04-06T08:00:42;96666.88;;;2.77;58.77
68508;BME280;55510;49.560;19.090;2023-04-06T08:03:43;96664.31;;;3.05;57.22
68508;BME280;55510;49.560;19.090;2023-04-06T08:06:44;96673.13;;;2.75;56.04
68508;BME280;55510;49.560;19.090;2023-04-06T08:09:44;96662.00;;;2.73;55.43
68508;BME280;55510;49.560;19.090;2023-04-06T08:12:45;96665.75;;;2.86;57.08
68508;BME280;55510;49.560;19.090;2023-04-06T08:15:46;96656.59;;;3.03;55.43
68508;BME280;55510;49.560;19.090;2023-04-06T08:18:47;96660.38;;;2.94;54.07
68508;BME280;55510;49.560;19.090;2023-04-06T08:21:47;96655.97;;;3.01;54.59
68508;BME280;55510;49.560;19.090;2023-04-06T08:24:48;96648.22;;;3.15;54.40
68508;BME280;55510;49.560;19.090;2023-04-06T08:27:49;96656.38;;;2.77;53.24
68508;BME280;55510;49.560;19.090;2023-04-06T08:30:49;96660.41;;;2.79;53.02
68508;BME280;55510;49.560;19.090;2023-04-06T08:33:50;96657.56;;;2.96;53.02
68508;BME280;55510;49.560;19.090;2023-04-06T08:36:51;96655.50;;;2.69;52.87
68508;BME280;55510;49.560;19.090;2023-04-06T08:39:52;96648.66;;;2.53;55.35
68508;BME280;55510;49.560;19.090;2023-04-06T08:42:55;96657.75;;;2.21;54.29
68508;BME280;55510;49.560;19.090;2023-04-06T08:45:56;96651.59;;;2.13;55.56
68508;BME280;55510;49.560;19.090;2023-04-06T08:48:59;96658.50;;;2.14;54.37
68508;BME280;55510;49.560;19.090;2023-04-06T08:52:00;96660.81;;;2.39;53.99
68508;BME280;55510;49.560;19.090;2023-04-06T08:55:02;96650.44;;;2.53;53.33
68508;BME280;55510;49.560;19.090;2023-04-06T08:58:04;96646.06;;;2.38;53.20
68508;BME280;55510;49.560;19.090;2023-04-06T09:01:08;96657.13;;;2.18;54.91
68508;BME280;55510;49.560;19.090;2023-04-06T09:04:12;96648.06;;;2.36;55.14
68508;BME280;55510;49.560;19.090;2023-04-06T09:07:14;96651.28;;;1.86;54.42
68508;BME280;55510;49.560;19.090;2023-04-06T09:10:16;96640.31;;;1.83;55.95
68508;BME280;55510;49.560;19.090;2023-04-06T09:13:17;96655.81;;;1.93;55.38
68508;BME280;55510;49.560;19.090;2023-04-06T09:16:18;96649.56;;;1.94;56.29
68508;BME280;55510;49.560;19.090;2023-04-06T09:19:19;96650.38;;;1.79;54.46
68508;BME280;55510;49.560;19.090;2023-04-06T09:22:20;96645.84;;;1.73;56.43
68508;BME280;55510;49.560;19.090;2023-04-06T09:25:22;96649.00;;;1.53;55.52
68508;BME280;55510;49.560;19.090;2023-04-06T09:28:23;96650.09;;;1.44;57.09
68508;BME280;55510;49.560;19.090;2023-04-06T09:31:29;96646.63;;;1.43;57.05
68508;BME280;55510;49.560;19.090;2023-04-06T09:34:30;96642.13;;;1.52;57.17
68508;BME280;55510;49.560;19.090;2023-04-06T09:37:31;96650.28;;;1.19;56.69
68508;BME280;55510;49.560;19.090;2023-04-06T09:40:32;96650.09;;;1.06;57.28
68508;BME280;55510;49.560;19.090;2023-04-06T09:43:33;96644.59;;;1.15;57.80
68508;BME280;55510;49.560;19.090;2023-04-06T09:46:41;96640.88;;;1.10;58.68
68508;BME280;55510;49.560;19.090;2023-04-06T09:49:43;96645.47;;;1.08;59.73
68508;BME280;55510;49.560;19.090;2023-04-06T09:52:48;96641.44;;;1.20;57.50
68508;BME280;55510;49.560;19.090;2023-04-06T09:55:51;96643.72;;;1.38;58.89
68508;BME280;55510;49.560;19.090;2023-04-06T09:59:02;96638.53;;;1.68;58.39
68508;BME280;55510;49.560;19.090;2023-04-06T10:02:05;96642.06;;;1.91;56.12
68508;BME280;55510;49.560;19.090;2023-04-06T10:05:33;96644.00;;;2.18;56.64
68508;BME280;55510;49.560;19.090;2023-04-06T10:08:38;96638.31;;;2.52;56.76
68508;BME280;55510;49.560;19.090;2023-04-06T10:11:43;96632.06;;;2.53;55.41
68508;BME280;55510;49.560;19.090;2023-04-06T10:14:43;96629.38;;;2.46;54.21
68508;BME280;55510;49.560;19.090;2023-04-06T10:17:45;96623.53;;;2.29;55.38
68508;BME280;55510;49.560;19.090;2023-04-06T10:23:53;96619.78;;;2.38;55.69
68508;BME280;55510;49.560;19.090;2023-04-06T10:27:01;96620.91;;;2.51;54.54
68508;BME280;55510;49.560;19.090;2023-04-06T10:30:06;96619.03;;;2.23;55.41
68508;BME280;55510;49.560;19.090;2023-04-06T10:33:17;96626.59;;;2.32;55.73
68508;BME280;55510;49.560;19.090;2023-04-06T10:36:23;96627.34;;;2.11;55.19
68508;BME280;55510;49.560;19.090;2023-04-06T10:39:25;96618.84;;;2.09;55.98
68508;BME280;55510;49.560;19.090;2023-04-06T10:42:37;96620.19;;;2.20;55.94
68508;BME280;55510;49.560;19.090;2023-04-06T10:45:38;96614.66;;;2.30;56.05
68508;BME280;55510;49.560;19.090;2023-04-06T10:51:41;96612.88;;;2.74;55.24
68508;BME280;55510;49.560;19.090;2023-04-06T10:54:42;96606.41;;;2.98;56.76
68508;BME280;55510;49.560;19.090;2023-04-06T10:57:46;96615.44;;;3.11;55.00
68508;BME280;55510;49.560;19.090;2023-04-06T11:00:48;96611.63;;;3.48;54.28
68508;BME280;55510;49.560;19.090;2023-04-06T11:03:56;96607.53;;;3.39;53.31
68508;BME280;55510;49.560;19.090;2023-04-06T11:06:59;96613.41;;;3.13;54.30
68508;BME280;55510;49.560;19.090;2023-04-06T11:10:00;96614.28;;;3.20;53.51
68508;BME280;55510;49.560;19.090;2023-04-06T11:13:01;96608.03;;;2.99;53.53
68508;BME280;55510;49.560;19.090;2023-04-06T11:16:04;96606.13;;;2.65;53.16
68508;BME280;55510;49.560;19.090;2023-04-06T11:19:05;96608.66;;;2.36;55.35
68508;BME280;55510;49.560;19.090;2023-04-06T11:22:09;96599.03;;;2.43;57.09
68508;BME280;55510;49.560;19.090;2023-04-06T11:25:12;96603.41;;;2.36;55.67
68508;BME280;55510;49.560;19.090;2023-04-06T11:28:14;96603.59;;;2.20;55.31
68508;BME280;55510;49.560;19.090;2023-04-06T11:31:14;96599.22;;;1.90;55.71
68508;BME280;55510;49.560;19.090;2023-04-06T11:34:17;96595.97;;;1.88;56.57
68508;BME280;55510;49.560;19.090;2023-04-06T11:37:18;96600.13;;;1.97;56.23
68508;BME280;55510;49.560;19.090;2023-04-06T11:40:22;96591.63;;;1.95;56.76
68508;BME280;55510;49.560;19.090;2023-04-06T11:43:28;96589.94;;;1.87;57.04
68508;BME280;55510;49.560;19.090;2023-04-06T11:46:29;96595.63;;;1.76;56.24
68508;BME280;55510;49.560;19.090;2023-04-06T11:49:30;96591.47;;;1.82;58.84
68508;BME280;55510;49.560;19.090;2023-04-06T11:52:31;96585.94;;;1.62;59.51
68508;BME280;55510;49.560;19.090;2023-04-06T11:55:37;96588.94;;;1.58;60.66
68508;BME280;55510;49.560;19.090;2023-04-06T11:58:38;96589.41;;;1.62;61.33
68508;BME280;55510;49.560;19.090;2023-04-06T12:01:48;96588.31;;;1.56;60.31
68508;BME280;55510;49.560;19.090;2023-04-06T12:04:49;96591.19;;;1.62;59.39
68508;BME280;55510;49.560;19.090;2023-04-06T12:07:49;96584.59;;;1.51;60.80
68508;BME280;55510;49.560;19.090;2023-04-06T12:10:51;96586.13;;;1.30;61.30
68508;BME280;55510;49.560;19.090;2023-04-06T12:13:51;96586.03;;;1.23;62.96
68508;BME280;55510;49.560;19.090;2023-04-06T12:16:52;96582.28;;;1.03;62.86
68508;BME280;55510;49.560;19.090;2023-04-06T12:19:53;96585.06;;;1.01;63.84
68508;BME280;55510;49.560;19.090;2023-04-06T12:22:53;96576.22;;;1.02;63.80
68508;BME280;55510;49.560;19.090;2023-04-06T12:25:54;96579.13;;;1.07;64.73
68508;BME280;55510;49.560;19.090;2023-04-06T12:28:56;96579.31;;;1.06;65.81
68508;BME280;55510;49.560;19.090;2023-04-06T12:31:56;96578.72;;;0.80;68.07
68508;BME280;55510;49.560;19.090;2023-04-06T12:34:57;96574.84;;;0.53;70.11
68508;BME280;55510;49.560;19.090;2023-04-06T12:37:58;96570.94;;;0.49;72.73
68508;BME280;55510;49.560;19.090;2023-04-06T12:40:59;96574.25;;;0.42;74.37
68508;BME280;55510;49.560;19.090;2023-04-06T12:44:00;96583.50;;;0.30;75.54
68508;BME280;55510;49.560;19.090;2023-04-06T12:47:02;96581.16;;;0.35;75.85
68508;BME280;55510;49.560;19.090;2023-04-06T12:50:04;96570.53;;;0.37;78.25
68508;BME280;55510;49.560;19.090;2023-04-06T12:53:06;96575.94;;;0.35;78.37
68508;BME280;55510;49.560;19.090;2023-04-06T12:56:14;96574.00;;;0.29;79.90
68508;BME280;55510;49.560;19.090;2023-04-06T12:59:15;96569.69;;;0.13;80.73
68508;BME280;55510;49.560;19.090;2023-04-06T13:02:16;96564.38;;;-0.02;82.47
68508;BME280;55510;49.560;19.090;2023-04-06T13:05:17;96565.41;;;-0.11;84.35
68508;BME280;55510;49.560;19.090;2023-04-06T13:08:19;96566.03;;;-0.09;85.34
68508;BME280;55510;49.560;19.090;2023-04-06T13:11:20;96569.03;;;-0.21;85.97
68508;BME280;55510;49.560;19.090;2023-04-06T13:14:24;96570.09;;;-0.38;86.99
68508;BME280;55510;49.560;19.090;2023-04-06T13:17:27;96566.03;;;-0.41;87.17
68508;BME280;55510;49.560;19.090;2023-04-06T13:20:27;96559.78;;;-0.32;87.28
68508;BME280;55510;49.560;19.090;2023-04-06T13:23:28;96548.97;;;-0.28;87.35
68508;BME280;55510;49.560;19.090;2023-04-06T13:26:31;96543.56;;;-0.27;87.72
68508;BME280;55510;49.560;19.090;2023-04-06T13:29:33;96541.31;;;-0.30;86.94
68508;BME280;55510;49.560;19.090;2023-04-06T13:32:34;96546.34;;;-0.28;87.95
68508;BME280;55510;49.560;19.090;2023-04-06T13:35:35;96537.69;;;-0.29;87.98
68508;BME280;55510;49.560;19.090;2023-04-06T13:38:36;96539.00;;;-0.25;88.06
68508;BME280;55510;49.560;19.090;2023-04-06T13:41:39;96541.59;;;-0.25;88.08
68508;BME280;55510;49.560;19.090;2023-04-06T13:44:40;96536.72;;;-0.28;88.29
68508;BME280;55510;49.560;19.090;2023-04-06T13:47:41;96536.88;;;-0.30;88.53
68508;BME280;55510;49.560;19.090;2023-04-06T13:50:42;96538.69;;;-0.30;89.02
68508;BME280;55510;49.560;19.090;2023-04-06T13:53:43;96533.16;;;-0.35;89.17
68508;BME280;55510;49.560;19.090;2023-04-06T13:56:44;96529.56;;;-0.34;88.99
68508;BME280;55510;49.560;19.090;2023-04-06T13:59:44;96531.53;;;-0.36;88.62
68508;BME280;55510;49.560;19.090;2023-04-06T14:02:45;96524.66;;;-0.37;88.96
68508;BME280;55510;49.560;19.090;2023-04-06T14:05:46;96535.47;;;-0.40;88.79
68508;BME280;55510;49.560;19.090;2023-04-06T14:08:46;96524.72;;;-0.54;89.03
68508;BME280;55510;49.560;19.090;2023-04-06T14:11:48;96532.59;;;-0.62;89.31
68508;BME280;55510;49.560;19.090;2023-04-06T14:14:49;96529.34;;;-0.64;89.23
68508;BME280;55510;49.560;19.090;2023-04-06T14:17:50;96528.38;;;-0.71;89.95
68508;BME280;55510;49.560;19.090;2023-04-06T14:20:55;96526.91;;;-0.66;90.16
68508;BME280;55510;49.560;19.090;2023-04-06T14:23:56;96530.66;;;-0.68;90.49
68508;BME280;55510;49.560;19.090;2023-04-06T14:26:57;96530.69;;;-0.77;90.16
68508;BME280;55510;49.560;19.090;2023-04-06T14:29:58;96532.31;;;-0.76;89.77
68508;BME280;55510;49.560;19.090;2023-04-06T14:32:58;96538.03;;;-0.80;90.66
68508;BME280;55510;49.560;19.090;2023-04-06T14:36:02;96538.06;;;-0.89;90.72
68508;BME280;55510;49.560;19.090;2023-04-06T14:39:07;96533.97;;;-0.91;90.84
68508;BME280;55510;49.560;19.090;2023-04-06T14:42:08;96539.53;;;-0.86;90.30
68508;BME280;55510;49.560;19.090;2023-04-06T14:45:08;96536.44;;;-0.90;90.58
68508;BME280;55510;49.560;19.090;2023-04-06T14:48:09;96542.16;;;-0.94;91.17
68508;BME280;55510;49.560;19.090;2023-04-06T14:51:12;96541.34;;;-0.95;91.94
68508;BME280;55510;49.560;19.090;2023-04-06T14:54:13;96537.91;;;-0.95;91.57
68508;BME280;55510;49.560;19.090;2023-04-06T14:57:13;96536.78;;;-0.93;91.78
68508;BME280;55510;49.560;19.090;2023-04-06T15:00:15;96541.03;;;-1.00;91.82
68508;BME280;55510;49.560;19.090;2023-04-06T15:03:15;96539.41;;;-1.01;92.76
68508;BME280;55510;49.560;19.090;2023-04-06T15:06:17;96529.44;;;-0.97;93.46
68508;BME280;55510;49.560;19.090;2023-04-06T15:09:19;96529.44;;;-0.97;93.94
68508;BME280;55510;49.560;19.090;2023-04-06T15:12:20;96536.63;;;-0.99;94.10
68508;BME280;55510;49.560;19.090;2023-04-06T15:15:21;96533.69;;;-1.05;93.86
68508;BME280;55510;49.560;19.090;2023-04-06T15:18:21;96533.03;;;-0.98;94.64
68508;BME280;55510;49.560;19.090;2023-04-06T15:21:22;96534.31;;;-0.94;94.74
68508;BME280;55510;49.560;19.090;2023-04-06T15:24:23;96535.59;;;-0.90;94.62
68508;BME280;55510;49.560;19.090;2023-04-06T15:27:23;96529.91;;;-0.94;94.31
68508;BME280;55510;49.560;19.090;2023-04-06T15:30:24;96541.84;;;-0.99;94.86
68508;BME280;55510;49.560;19.090;2023-04-06T15:33:25;96538.59;;;-1.02;95.60
68508;BME280;55510;49.560;19.090;2023-04-06T15:36:28;96540.53;;;-1.04;95.47
68508;BME280;55510;49.560;19.090;2023-04-06T15:39:31;96540.88;;;-1.07;95.74
68508;BME280;55510;49.560;19.090;2023-04-06T15:42:32;96547.25;;;-1.09;96.03
68508;BME280;55510;49.560;19.090;2023-04-06T15:45:32;96543.81;;;-1.02;96.01
68508;BME280;55510;49.560;19.090;2023-04-06T15:48:33;96540.84;;;-0.98;95.82
68508;BME280;55510;49.560;19.090;2023-04-06T15:51:35;96534.97;;;-1.00;95.91
68508;BME280;55510;49.560;19.090;2023-04-06T15:54:35;96540.84;;;-0.98;96.37
68508;BME280;55510;49.560;19.090;2023-04-06T15:57:40;96545.94;;;-0.97;95.96